createdAt,value
2023-01-26T00:01:36.055Z,1.67
2023-01-26T00:04:06.893Z,1.65
2023-01-26T00:06:37.836Z,1.59
2023-01-26T00:09:08.822Z,1.56
2023-01-26T00:11:39.758Z,1.55
2023-01-26T00:14:10.624Z,1.49
2023-01-26T00:16:41.807Z,1.41
2023-01-26T00:19:12.844Z,1.39
2023-01-26T00:21:43.831Z,1.37
2023-01-26T00:24:14.640Z,1.40
2023-01-26T00:26:45.595Z,1.41
2023-01-26T00:29:16.472Z,1.45
2023-01-26T00:31:47.481Z,1.47
2023-01-26T00:34:18.518Z,1.49
2023-01-26T00:36:49.346Z,1.48
2023-01-26T00:39:20.149Z,1.51
2023-01-26T00:42:10.100Z,1.52
2023-01-26T00:44:41.117Z,1.47
2023-01-26T00:47:12.751Z,1.43
2023-01-26T00:49:43.612Z,1.41
2023-01-26T00:52:14.555Z,1.38
2023-01-26T00:54:45.266Z,1.35
2023-01-26T00:57:16.226Z,1.36
2023-01-26T00:59:47.009Z,1.32
2023-01-26T01:02:17.954Z,1.32
2023-01-26T01:04:48.893Z,1.27
2023-01-26T01:07:19.704Z,1.22
2023-01-26T01:09:50.629Z,1.21
2023-01-26T01:12:21.490Z,1.24
2023-01-26T01:14:52.472Z,1.27
2023-01-26T01:17:23.263Z,1.29
2023-01-26T01:19:54.051Z,1.28
2023-01-26T01:22:24.930Z,1.33
2023-01-26T01:24:55.784Z,1.37
2023-01-26T01:27:26.851Z,1.37
2023-01-26T01:29:57.555Z,1.37
2023-01-26T01:32:28.522Z,1.37
2023-01-26T01:34:59.291Z,1.36
2023-01-26T01:37:30.208Z,1.36
2023-01-26T01:40:00.965Z,1.35
2023-01-26T01:42:31.849Z,1.34
2023-01-26T01:45:19.600Z,1.33
2023-01-26T01:47:50.461Z,1.26
2023-01-26T01:50:21.392Z,1.19
2023-01-26T01:52:52.697Z,1.18
2023-01-26T01:55:24.884Z,1.19
2023-01-26T01:57:57.050Z,1.24
2023-01-26T02:00:28.019Z,1.27
2023-01-26T02:03:12.207Z,1.31
2023-01-26T02:05:48.985Z,1.31
2023-01-26T02:08:20.407Z,1.29
2023-01-26T02:10:51.527Z,1.27
2023-01-26T02:13:22.267Z,1.29
2023-01-26T02:15:53.179Z,1.26
2023-01-26T02:18:24.022Z,1.22
2023-01-26T02:20:55.376Z,1.22
2023-01-26T02:23:28.102Z,1.24
2023-01-26T02:26:12.546Z,1.25
2023-01-26T02:28:43.495Z,1.30
2023-01-26T02:31:15.069Z,1.30
2023-01-26T02:33:45.863Z,1.30
2023-01-26T02:36:20.056Z,1.31
2023-01-26T02:38:53.143Z,1.29
2023-01-26T02:41:41.303Z,1.29
2023-01-26T02:44:12.814Z,1.29
2023-01-26T02:46:44.050Z,1.30
2023-01-26T02:49:32.617Z,1.29
2023-01-26T02:52:04.003Z,1.25
2023-01-26T02:54:52.195Z,1.26
2023-01-26T02:57:23.575Z,1.30
2023-01-26T02:59:54.850Z,1.31
2023-01-26T03:02:25.489Z,1.31
2023-01-26T03:04:56.204Z,1.29
2023-01-26T03:07:28.550Z,1.27
2023-01-26T03:10:00.110Z,1.28
2023-01-26T03:12:30.998Z,1.29
2023-01-26T03:15:19.085Z,1.35
2023-01-26T03:17:51.052Z,1.38
2023-01-26T03:20:39.444Z,1.41
2023-01-26T03:23:28.677Z,1.37
2023-01-26T03:26:17.456Z,1.35
2023-01-26T03:28:49.030Z,1.41
2023-01-26T03:31:19.855Z,1.46
2023-01-26T03:33:50.770Z,1.46
2023-01-26T03:36:22.770Z,1.44
2023-01-26T03:38:53.613Z,1.42
2023-01-26T03:41:42.399Z,1.38
2023-01-26T03:44:31.350Z,1.39
2023-01-26T03:47:20.461Z,1.36
2023-01-26T03:50:09.755Z,1.35
2023-01-26T03:52:59.248Z,1.30
2023-01-26T03:55:47.354Z,1.27
2023-01-26T03:58:19.969Z,1.27
2023-01-26T04:00:51.427Z,1.26
2023-01-26T04:03:40.162Z,1.26
2023-01-26T04:06:28.512Z,1.27
2023-01-26T04:08:59.789Z,1.33
2023-01-26T04:11:31.641Z,1.36
2023-01-26T04:14:20.531Z,1.38
2023-01-26T04:17:09.313Z,1.41
2023-01-26T04:19:58.470Z,1.42
2023-01-26T04:22:30.652Z,1.41
2023-01-26T04:25:03.801Z,1.41
2023-01-26T04:27:35.113Z,1.41
2023-01-26T04:30:07.796Z,1.44
2023-01-26T04:35:37.517Z,1.55
2023-01-26T04:38:08.406Z,1.58
2023-01-26T04:40:39.355Z,1.59
2023-01-26T04:43:10.033Z,1.63
2023-01-26T04:45:41.041Z,1.60
2023-01-26T04:48:11.975Z,1.53
2023-01-26T04:50:43.212Z,1.46
2023-01-26T04:53:14.114Z,1.40
2023-01-26T04:55:45.061Z,1.37
2023-01-26T04:58:15.939Z,1.39
2023-01-26T05:00:48.431Z,1.44
2023-01-26T05:03:19.472Z,1.50
2023-01-26T05:05:51.238Z,1.55
2023-01-26T05:08:22.423Z,1.58
2023-01-26T05:10:53.264Z,1.59
2023-01-26T05:13:23.959Z,1.57
2023-01-26T05:15:54.709Z,1.51
2023-01-26T05:18:25.412Z,1.45
2023-01-26T05:20:56.415Z,1.43
2023-01-26T05:23:27.327Z,1.39
2023-01-26T05:25:58.693Z,1.33
2023-01-26T05:28:29.458Z,1.28
2023-01-26T05:31:00.382Z,1.27
2023-01-26T05:33:31.185Z,1.24
2023-01-26T05:36:05.049Z,1.26
2023-01-26T05:38:36.013Z,1.29
2023-01-26T05:41:07.753Z,1.30
2023-01-26T05:43:39.486Z,1.29
2023-01-26T05:46:10.495Z,1.29
2023-01-26T05:48:41.282Z,1.27
2023-01-26T05:51:12.002Z,1.26
2023-01-26T05:53:42.875Z,1.22
2023-01-26T05:56:13.924Z,1.17
2023-01-26T05:58:44.708Z,1.16
2023-01-26T06:01:15.577Z,1.18
2023-01-26T06:03:46.386Z,1.20
2023-01-26T06:06:17.185Z,1.23
2023-01-26T06:08:48.199Z,1.24
2023-01-26T06:11:19.640Z,1.23
2023-01-26T06:13:50.655Z,1.23
2023-01-26T06:16:21.674Z,1.27
2023-01-26T06:18:53.471Z,1.32
2023-01-26T06:21:24.311Z,1.31
2023-01-26T06:23:55.102Z,1.30
2023-01-26T06:26:25.989Z,1.34
2023-01-26T06:28:57.114Z,1.41
2023-01-26T06:31:29.834Z,1.44
2023-01-26T06:34:00.901Z,1.43
2023-01-26T06:36:31.906Z,1.45
2023-01-26T06:39:02.894Z,1.45
2023-01-26T06:41:34.312Z,1.41
2023-01-26T06:44:05.276Z,1.32
2023-01-26T06:46:36.437Z,1.24
2023-01-26T06:49:07.387Z,1.20
2023-01-26T06:51:43.598Z,1.22
2023-01-26T06:54:14.800Z,1.25
2023-01-26T06:56:45.813Z,1.29
2023-01-26T06:59:16.715Z,1.33
2023-01-26T07:01:48.994Z,1.35
2023-01-26T07:04:19.726Z,1.35
2023-01-26T07:06:50.683Z,1.38
2023-01-26T07:09:21.455Z,1.39
2023-01-26T07:11:52.413Z,1.41
2023-01-26T07:14:23.285Z,1.37
2023-01-26T07:16:54.158Z,1.27
2023-01-26T07:19:25.151Z,1.22
2023-01-26T07:21:56.181Z,1.19
2023-01-26T07:24:27.157Z,1.18
2023-01-26T07:26:59.147Z,1.13
2023-01-26T07:29:30.642Z,1.10
2023-01-26T07:32:01.622Z,1.11
2023-01-26T07:34:32.563Z,1.14
2023-01-26T07:37:04.230Z,1.18
2023-01-26T07:39:35.070Z,1.24
2023-01-26T07:42:06.147Z,1.26
2023-01-26T07:44:37.223Z,1.26
2023-01-26T07:47:08.205Z,1.27
2023-01-26T07:49:39.198Z,1.24
2023-01-26T07:52:10.449Z,1.24
2023-01-26T07:54:41.237Z,1.23
2023-01-26T07:57:12.585Z,1.17
2023-01-26T07:59:43.570Z,1.11
2023-01-26T08:02:14.543Z,1.08
2023-01-26T08:04:45.270Z,1.01
2023-01-26T08:07:16.165Z,0.96
2023-01-26T08:09:47.011Z,0.97
2023-01-26T08:12:17.901Z,0.98
2023-01-26T08:14:48.749Z,0.98
2023-01-26T08:17:19.587Z,0.95
2023-01-26T08:19:50.422Z,0.90
2023-01-26T08:22:21.434Z,0.89
2023-01-26T08:24:52.217Z,0.91
2023-01-26T08:27:23.731Z,0.93
2023-01-26T08:29:54.569Z,0.93
2023-01-26T08:32:25.523Z,0.98
2023-01-26T08:34:56.336Z,1.01
2023-01-26T08:37:27.246Z,1.00
2023-01-26T08:39:58.037Z,1.01
2023-01-26T08:42:29.091Z,1.00
2023-01-26T08:44:59.824Z,0.98
2023-01-26T08:47:30.717Z,0.97
2023-01-26T08:50:01.580Z,0.98
2023-01-26T08:52:32.490Z,0.99
2023-01-26T08:55:03.420Z,0.99
2023-01-26T08:57:34.169Z,1.00
2023-01-26T09:00:07.430Z,1.03
2023-01-26T09:02:38.382Z,1.06
2023-01-26T09:05:10.136Z,1.11
2023-01-26T09:07:41.670Z,1.13
2023-01-26T09:10:13.627Z,1.17
2023-01-26T09:12:44.866Z,1.21
2023-01-26T09:15:15.780Z,1.24
2023-01-26T09:17:46.569Z,1.26
2023-01-26T09:20:17.621Z,1.25
2023-01-26T09:22:49.107Z,1.18
2023-01-26T09:25:19.785Z,1.13
2023-01-26T09:27:51.295Z,1.12
2023-01-26T09:30:22.217Z,1.14
2023-01-26T09:32:53.021Z,1.15
2023-01-26T09:35:24.018Z,1.15
2023-01-26T09:37:54.857Z,1.14
2023-01-26T09:40:28.249Z,1.14
2023-01-26T09:43:06.265Z,1.13
2023-01-26T09:45:39.061Z,1.15
2023-01-26T09:48:17.344Z,1.17
2023-01-26T09:50:49.219Z,1.12
2023-01-26T09:53:20.593Z,1.10
2023-01-26T09:55:51.552Z,1.12
2023-01-26T09:58:23.811Z,1.12
2023-01-26T10:00:55.973Z,1.10
2023-01-26T10:03:28.253Z,1.06
2023-01-26T10:06:00.989Z,1.05
2023-01-26T10:08:31.781Z,1.07
2023-01-26T10:11:03.148Z,1.06
2023-01-26T10:13:33.902Z,1.02
2023-01-26T10:16:05.453Z,1.01
2023-01-26T10:18:36.972Z,1.01
2023-01-26T10:21:07.949Z,1.02
2023-01-26T10:23:38.777Z,1.01
2023-01-26T10:26:13.151Z,1.03
2023-01-26T10:28:44.301Z,1.01
2023-01-26T10:31:47.378Z,1.02
2023-01-26T10:34:19.603Z,1.08
2023-01-26T10:36:50.580Z,1.14
2023-01-26T10:39:21.665Z,1.20
2023-01-26T10:41:59.614Z,1.27
2023-01-26T10:44:33.769Z,1.32
2023-01-26T10:47:05.773Z,1.36
2023-01-26T10:49:36.572Z,1.39
2023-01-26T10:52:08.649Z,1.40
2023-01-26T10:54:39.861Z,1.45
2023-01-26T10:57:15.585Z,1.47
2023-01-26T10:59:49.879Z,1.45
2023-01-26T11:02:22.963Z,1.44
2023-01-26T11:05:11.440Z,1.45
2023-01-26T11:07:43.125Z,1.49
2023-01-26T11:10:24.753Z,1.51
2023-01-26T11:13:07.497Z,1.56
2023-01-26T11:15:39.861Z,1.59
2023-01-26T11:18:14.864Z,1.62
2023-01-26T11:20:52.616Z,1.66
2023-01-26T11:23:26.550Z,1.69
2023-01-26T11:26:06.789Z,1.71
2023-01-26T11:28:41.263Z,1.72
2023-01-26T11:31:15.612Z,1.72
2023-01-26T11:33:49.577Z,1.74
2023-01-26T11:36:23.582Z,1.74
2023-01-26T11:38:56.689Z,1.73
2023-01-26T11:41:29.563Z,1.72
2023-01-26T11:44:11.381Z,1.71
2023-01-26T11:46:46.408Z,1.71
2023-01-26T11:49:21.560Z,1.73
2023-01-26T11:51:56.416Z,1.77
2023-01-26T11:54:31.017Z,1.79
2023-01-26T11:57:05.269Z,1.81
2023-01-26T11:59:38.541Z,1.85
2023-01-26T12:02:27.132Z,1.87
2023-01-26T12:04:58.927Z,1.90
2023-01-26T12:07:31.010Z,1.88
2023-01-26T12:10:01.857Z,1.85
2023-01-26T12:12:34.938Z,1.87
2023-01-26T12:15:07.622Z,1.86
2023-01-26T12:17:40.657Z,1.87
2023-01-26T12:20:17.856Z,1.87
2023-01-26T12:22:50.918Z,1.88
2023-01-26T12:25:24.663Z,1.87
2023-01-26T12:27:56.797Z,1.85
2023-01-26T12:30:30.523Z,1.85
2023-01-26T12:33:01.485Z,1.87
2023-01-26T12:35:37.768Z,1.90
2023-01-26T12:38:18.051Z,1.89
2023-01-26T12:40:53.014Z,1.90
2023-01-26T12:43:28.005Z,1.93
2023-01-26T12:46:00.774Z,2.00
2023-01-26T12:48:32.810Z,2.06
2023-01-26T12:51:04.075Z,2.14
2023-01-26T12:53:37.784Z,2.18
2023-01-26T12:56:10.170Z,2.18
2023-01-26T12:58:43.140Z,2.16
2023-01-26T13:01:14.664Z,2.18
2023-01-26T13:03:46.309Z,2.19
2023-01-26T13:06:24.774Z,2.21
2023-01-26T13:09:04.636Z,2.19
2023-01-26T13:11:45.857Z,2.17
2023-01-26T13:14:42.372Z,2.16
2023-01-26T13:17:29.595Z,2.17
2023-01-26T13:20:00.897Z,2.22
2023-01-26T13:22:41.848Z,2.27
2023-01-26T13:25:18.224Z,2.31
2023-01-26T13:27:56.881Z,2.35
2023-01-26T13:30:41.105Z,2.36
2023-01-26T13:33:13.404Z,2.32
2023-01-26T13:35:44.307Z,2.32
2023-01-26T13:38:20.584Z,2.32
2023-01-26T13:40:51.571Z,2.33
2023-01-26T13:43:28.558Z,2.33
2023-01-26T13:46:15.930Z,2.33
2023-01-26T13:48:47.794Z,2.36
2023-01-26T13:51:20.321Z,2.41
2023-01-26T13:53:54.695Z,2.46
2023-01-26T13:56:28.123Z,2.44
2023-01-26T13:59:10.408Z,2.45
2023-01-26T14:01:44.998Z,2.47
2023-01-26T14:04:16.687Z,2.49
2023-01-26T14:06:49.385Z,2.49
2023-01-26T14:09:20.293Z,2.46
2023-01-26T14:11:56.703Z,2.41
2023-01-26T14:14:28.492Z,2.39
2023-01-26T14:17:00.361Z,2.38
2023-01-26T14:19:32.344Z,2.36
2023-01-26T14:22:05.294Z,2.35
2023-01-26T14:24:39.683Z,2.39
2023-01-26T14:27:21.667Z,2.41
2023-01-26T14:29:52.583Z,2.43
2023-01-26T14:32:25.595Z,2.46
2023-01-26T14:34:56.891Z,2.46
2023-01-26T14:37:28.582Z,2.44
2023-01-26T14:40:22.203Z,2.43
2023-01-26T14:42:54.002Z,2.41
2023-01-26T14:45:27.646Z,2.41
2023-01-26T14:47:59.843Z,2.40
2023-01-26T14:50:32.499Z,2.39
2023-01-26T14:53:05.627Z,2.39
2023-01-26T14:55:36.665Z,2.38
2023-01-26T14:58:15.297Z,2.36
2023-01-26T15:00:48.711Z,2.33
2023-01-26T15:03:22.617Z,2.30
2023-01-26T15:05:56.030Z,2.28
2023-01-26T15:08:27.340Z,2.27
2023-01-26T15:11:19.486Z,2.24
2023-01-26T15:13:50.886Z,2.23
2023-01-26T15:16:22.329Z,2.22
2023-01-26T15:19:01.388Z,2.19
2023-01-26T15:21:35.045Z,2.18
2023-01-26T15:24:06.238Z,2.20
2023-01-26T15:26:38.499Z,2.21
2023-01-26T15:29:17.681Z,2.19
2023-01-26T15:31:52.865Z,2.18
2023-01-26T15:34:34.927Z,2.13
2023-01-26T15:37:20.590Z,2.09
2023-01-26T15:39:51.410Z,2.11
2023-01-26T15:42:24.876Z,2.14
2023-01-26T15:44:55.737Z,2.14
2023-01-26T15:47:26.679Z,2.14
2023-01-26T15:49:57.597Z,2.13
2023-01-26T15:52:30.529Z,2.15
2023-01-26T15:55:01.601Z,2.17
2023-01-26T15:57:32.460Z,2.19
2023-01-26T16:00:05.035Z,2.22
2023-01-26T16:02:35.897Z,2.25
2023-01-26T16:05:07.251Z,2.26
2023-01-26T16:07:38.111Z,2.27
2023-01-26T16:10:10.132Z,2.29
2023-01-26T16:12:40.852Z,2.30
2023-01-26T16:15:26.192Z,2.32
2023-01-26T16:17:56.972Z,2.32
2023-01-26T16:20:27.811Z,2.32
2023-01-26T16:22:58.670Z,2.30
2023-01-26T16:25:30.448Z,2.31
2023-01-26T16:28:01.230Z,2.33
2023-01-26T16:30:32.233Z,2.37
2023-01-26T16:33:03.023Z,2.39
2023-01-26T16:35:34.369Z,2.42
2023-01-26T16:38:07.525Z,2.46
2023-01-26T16:40:38.411Z,2.50
2023-01-26T16:43:10.933Z,2.55
2023-01-26T16:45:41.870Z,2.59
2023-01-26T16:48:13.301Z,2.65
2023-01-26T16:50:44.925Z,2.67
2023-01-26T16:53:18.326Z,2.72
2023-01-26T16:55:49.092Z,2.75
2023-01-26T16:58:21.670Z,2.79
2023-01-26T17:00:53.444Z,2.82
2023-01-26T17:03:24.654Z,2.84
2023-01-26T17:05:55.676Z,2.88
2023-01-26T17:08:26.658Z,2.91
2023-01-26T17:11:02.363Z,2.92
2023-01-26T17:13:33.498Z,2.94
2023-01-26T17:16:04.678Z,2.97
2023-01-26T17:18:36.122Z,2.99
2023-01-26T17:21:07.858Z,3.00
2023-01-26T17:23:41.723Z,3.02
2023-01-26T17:26:13.911Z,3.05
2023-01-26T17:28:44.959Z,3.06
2023-01-26T17:31:17.878Z,3.05
2023-01-26T17:33:49.352Z,3.04
2023-01-26T17:36:20.757Z,3.05
2023-01-26T17:38:51.503Z,3.06
2023-01-26T17:41:22.554Z,3.08
2023-01-26T17:43:54.681Z,3.08
2023-01-26T17:46:25.562Z,3.08
2023-01-26T17:48:56.343Z,3.07
2023-01-26T17:51:28.367Z,3.07
2023-01-26T17:53:59.305Z,3.10
2023-01-26T17:56:31.166Z,3.12
2023-01-26T17:59:02.841Z,3.13
2023-01-26T18:01:33.761Z,3.13
2023-01-26T18:04:04.811Z,3.13
2023-01-26T18:06:36.403Z,3.10
2023-01-26T18:09:07.118Z,3.12
2023-01-26T18:11:41.359Z,3.12
2023-01-26T18:14:12.326Z,3.12
2023-01-26T18:16:43.406Z,3.11
2023-01-26T18:19:14.901Z,3.10
2023-01-26T18:21:45.865Z,3.07
2023-01-26T18:24:16.580Z,3.05
2023-01-26T18:26:47.612Z,3.04
2023-01-26T18:29:18.627Z,3.04
2023-01-26T18:31:49.988Z,3.05
2023-01-26T18:34:20.939Z,3.04
2023-01-26T18:36:51.865Z,3.05
2023-01-26T18:39:22.877Z,3.07
2023-01-26T18:41:53.813Z,3.08
2023-01-26T18:44:27.226Z,3.07
2023-01-26T18:46:58.978Z,3.06
2023-01-26T18:49:29.916Z,3.04
2023-01-26T18:52:02.090Z,3.03
2023-01-26T18:54:33.116Z,3.01
2023-01-26T18:57:05.055Z,2.98
2023-01-26T18:59:35.769Z,2.96
2023-01-26T19:02:06.940Z,2.96
2023-01-26T19:04:37.837Z,2.99
2023-01-26T19:07:09.799Z,2.98
2023-01-26T19:09:40.760Z,2.97
2023-01-26T19:12:12.117Z,2.98
2023-01-26T19:14:42.958Z,2.97
2023-01-26T19:17:14.093Z,2.96
2023-01-26T19:19:45.771Z,2.96
2023-01-26T19:22:16.590Z,2.95
2023-01-26T19:24:47.717Z,2.95
2023-01-26T19:27:19.403Z,2.94
2023-01-26T19:29:51.753Z,2.96
2023-01-26T19:32:22.414Z,2.95
2023-01-26T19:34:54.349Z,2.97
2023-01-26T19:37:25.409Z,2.96
2023-01-26T19:39:56.311Z,2.97
2023-01-26T19:42:27.171Z,2.97
2023-01-26T19:44:57.946Z,2.96
2023-01-26T19:47:28.739Z,2.97
2023-01-26T19:50:00.043Z,2.99
2023-01-26T19:52:30.983Z,3.01
2023-01-26T19:55:01.867Z,3.01
2023-01-26T19:57:33.838Z,3.00
2023-01-26T20:00:07.154Z,3.01
2023-01-26T20:02:38.096Z,2.99
2023-01-26T20:05:09.658Z,2.98
2023-01-26T20:07:44.402Z,2.98
2023-01-26T20:10:15.248Z,2.97
2023-01-26T20:12:46.589Z,2.95
2023-01-26T20:15:17.537Z,2.90
2023-01-26T20:17:48.443Z,2.86
2023-01-26T20:20:19.410Z,2.85
2023-01-26T20:22:50.269Z,2.82
2023-01-26T20:25:21.258Z,2.82
2023-01-26T20:27:52.458Z,2.84
2023-01-26T20:30:23.551Z,2.84
2023-01-26T20:32:55.559Z,2.82
2023-01-26T20:35:26.766Z,2.80
2023-01-26T20:37:57.662Z,2.78
2023-01-26T20:40:29.261Z,2.77
2023-01-26T20:43:00.479Z,2.76
2023-01-26T20:45:31.663Z,2.75
2023-01-26T20:48:03.537Z,2.76
2023-01-26T20:50:40.225Z,2.76
2023-01-26T20:53:11.205Z,2.75
2023-01-26T20:55:42.109Z,2.75
2023-01-26T20:58:14.034Z,2.72
2023-01-26T21:00:44.819Z,2.69
2023-01-26T21:03:15.915Z,2.67
2023-01-26T21:05:46.631Z,2.66
2023-01-26T21:08:17.534Z,2.66
2023-01-26T21:10:48.521Z,2.64
2023-01-26T21:13:19.516Z,2.64
2023-01-26T21:15:51.451Z,2.65
2023-01-26T21:18:22.409Z,2.66
2023-01-26T21:20:57.629Z,2.68
2023-01-26T21:23:29.095Z,2.68
2023-01-26T21:26:01.082Z,2.66
2023-01-26T21:28:33.474Z,2.63
2023-01-26T21:31:05.768Z,2.62
2023-01-26T21:33:38.344Z,2.62
2023-01-26T21:36:10.810Z,2.63
2023-01-26T21:38:43.229Z,2.63
2023-01-26T21:41:32.777Z,2.60
2023-01-26T21:44:06.167Z,2.58
2023-01-26T21:46:37.599Z,2.57
2023-01-26T21:49:09.162Z,2.57
2023-01-26T21:51:58.256Z,2.56
2023-01-26T21:54:30.226Z,2.53
2023-01-26T21:57:01.468Z,2.52
2023-01-26T21:59:32.934Z,2.53
2023-01-26T22:02:04.373Z,2.54
2023-01-26T22:04:36.444Z,2.53
2023-01-26T22:07:07.812Z,2.52
2023-01-26T22:09:40.583Z,2.52
2023-01-26T22:12:11.858Z,2.51
2023-01-26T22:14:43.346Z,2.51
2023-01-26T22:17:14.932Z,2.51
2023-01-26T22:19:46.381Z,2.52
2023-01-26T22:22:17.748Z,2.51
2023-01-26T22:24:48.994Z,2.51
2023-01-26T22:27:20.245Z,2.52
2023-01-26T22:29:51.855Z,2.50
2023-01-26T22:32:23.580Z,2.48
2023-01-26T22:34:55.115Z,2.45
2023-01-26T22:37:26.507Z,2.42
2023-01-26T22:39:57.975Z,2.41
2023-01-26T22:42:30.660Z,2.39
2023-01-26T22:45:02.252Z,2.35
2023-01-26T22:47:33.374Z,2.31
2023-01-26T22:50:05.443Z,2.30
2023-01-26T22:52:37.004Z,2.31
2023-01-26T22:55:08.760Z,2.29
2023-01-26T22:57:40.293Z,2.26
2023-01-26T23:00:13.690Z,2.25
2023-01-26T23:02:45.419Z,2.22
2023-01-26T23:05:16.786Z,2.20
2023-01-26T23:07:48.131Z,2.20
2023-01-26T23:10:19.679Z,2.16
2023-01-26T23:12:51.065Z,2.12
2023-01-26T23:15:22.371Z,2.07
2023-01-26T23:17:54.027Z,2.01
2023-01-26T23:20:25.611Z,1.97
2023-01-26T23:22:57.174Z,1.93
2023-01-26T23:25:46.340Z,1.86
2023-01-26T23:28:17.782Z,1.81
2023-01-26T23:30:49.401Z,1.77
2023-01-26T23:33:21.537Z,1.74
2023-01-26T23:35:53.389Z,1.68
2023-01-26T23:38:25.931Z,1.65
2023-01-26T23:40:57.476Z,1.59
2023-01-26T23:43:29.038Z,1.58
2023-01-26T23:46:00.579Z,1.55
2023-01-26T23:48:32.134Z,1.50
2023-01-26T23:51:04.147Z,1.46
2023-01-26T23:53:35.880Z,1.45
2023-01-26T23:56:08.492Z,1.43
2023-01-26T23:58:40.093Z,1.39
